Time;durP1;ratioP1;P1;durP2;ratioP2;P2;SDS_P1;SDS_P2;PMS_P1;PMS_P2;Temp;Humidity;BMP_temperature;BMP_pressure;BME280_temperature;BME280_humidity;BME280_pressure;Samples;Min_cycle;Max_cycle;Signal;HPM_P1;HPM_P2
2023/04/03 00:00:25;;;;;;;6.22;1.95;;;;;;;11.62;42.09;102665.34;4931859;28;20047;-66
2023/04/03 00:02:50;;;;;;;3.17;2.13;;;;;;;11.60;41.91;102661.91;4932286;29;20439;-66
2023/04/03 00:05:16;;;;;;;4.45;2.05;;;;;;;11.56;41.46;102663.03;4900341;28;20598;-66
2023/04/03 00:07:41;;;;;;;6.22;2.53;;;;;;;11.54;41.43;102668.50;4931935;28;20036;-66
2023/04/03 00:10:07;;;;;;;3.70;1.85;;;;;;;11.54;41.56;102670.31;4932943;28;20174;-67
2023/04/03 00:12:33;;;;;;;4.50;1.73;;;;;;;11.51;41.51;102667.81;4947453;28;20498;-67
2023/04/03 00:14:58;;;;;;;3.40;1.73;;;;;;;11.48;41.51;102666.19;4916315;29;20042;-66
2023/04/03 00:17:24;;;;;;;5.13;3.08;;;;;;;11.44;41.50;102663.78;4931889;28;20066;-66
2023/04/03 00:19:49;;;;;;;2.28;2.08;;;;;;;11.41;41.56;102667.50;4915892;28;20495;-66
2023/04/03 00:22:14;;;;;;;2.83;2.17;;;;;;;11.37;40.81;102665.06;4915650;28;20178;-66
2023/04/03 00:24:40;;;;;;;3.50;2.00;;;;;;;11.34;41.71;102665.25;4931618;28;20047;-66
2023/04/03 00:27:05;;;;;;;3.35;2.17;;;;;;;11.30;42.28;102663.72;4931692;28;20482;-66
2023/04/03 00:29:31;;;;;;;2.42;1.80;;;;;;;11.27;41.85;102664.75;4931987;28;20032;-66
2023/04/03 00:31:56;;;;;;;2.92;2.03;;;;;;;11.22;42.01;102657.94;4915564;28;20498;-65
2023/04/03 00:34:22;;;;;;;3.45;2.03;;;;;;;11.21;41.56;102665.09;4931601;28;20043;-66
2023/04/03 00:36:47;;;;;;;2.45;2.03;;;;;;;11.19;41.49;102664.34;4931237;28;20471;-66
2023/04/03 00:39:12;;;;;;;3.97;2.63;;;;;;;11.15;41.59;102664.56;4932902;28;20054;-65
2023/04/03 00:41:38;;;;;;;10.38;2.30;;;;;;;11.16;41.66;102671.69;4931803;29;20055;-66
2023/04/03 00:44:43;;;;;;;4.85;2.40;;;;;;;11.14;42.32;102669.06;4932591;28;20120;-66
2023/04/03 00:47:11;;;;;;;5.55;2.72;;;;;;;11.11;42.12;102670.13;4977128;28;20507;-65
2023/04/03 00:49:37;;;;;;;6.47;2.28;;;;;;;11.12;41.88;102668.31;4940807;28;20055;-66
2023/04/03 00:52:03;;;;;;;2.33;1.83;;;;;;;11.10;41.86;102668.41;4950213;28;20556;-66
2023/04/03 00:54:28;;;;;;;5.50;2.33;;;;;;;11.08;42.19;102662.25;4950329;28;20058;-66
2023/04/03 00:56:55;;;;;;;5.72;2.40;;;;;;;11.10;41.05;102667.53;4950620;28;20114;-66
2023/04/03 00:59:26;;;;;;;5.03;2.35;;;;;;;11.09;42.23;102661.31;4966114;28;20130;-66
2023/04/03 01:01:54;;;;;;;2.42;2.13;;;;;;;11.08;41.62;102664.91;4966201;28;20039;-65
2023/04/03 01:04:30;;;;;;;4.32;2.45;;;;;;;11.09;42.04;102669.34;4952162;28;20039;-66
2023/04/03 01:06:57;;;;;;;4.72;2.10;;;;;;;11.06;41.58;102661.47;4953574;28;20130;-66
2023/04/03 01:09:23;;;;;;;2.33;2.13;;;;;;;11.06;41.89;102671.31;4953510;28;20039;-66
2023/04/03 01:11:48;;;;;;;4.25;2.38;;;;;;;11.04;42.00;102678.59;4953861;28;20039;-66
2023/04/03 01:14:14;;;;;;;2.88;2.13;;;;;;;11.01;41.96;102678.78;4953215;28;20039;-65
2023/04/03 01:16:40;;;;;;;3.08;2.00;;;;;;;10.92;41.87;102682.84;4937466;28;20032;-65
2023/04/03 01:19:12;;;;;;;3.05;2.00;;;;;;;10.83;41.91;102677.97;4937526;28;20513;-66
2023/04/03 01:22:02;;;;;;;2.33;1.67;;;;;;;10.74;41.55;102680.31;4953191;28;20100;-66
2023/04/03 01:24:33;;;;;;;2.25;1.67;;;;;;;10.62;41.81;102687.22;4954439;28;20036;-65
2023/04/03 01:26:59;;;;;;;2.67;1.95;;;;;;;10.52;42.03;102686.84;4937890;29;20554;-66
2023/04/03 01:29:24;;;;;;;4.82;2.15;;;;;;;10.43;41.73;102687.34;4953463;28;20406;-65
2023/04/03 01:32:10;;;;;;;3.40;2.08;;;;;;;10.36;42.05;102695.78;4937838;29;20523;-66
2023/04/03 01:34:35;;;;;;;2.65;2.13;;;;;;;10.24;42.06;102686.63;4954384;28;20035;-66
2023/04/03 01:37:00;;;;;;;1.52;1.35;;;;;;;10.18;42.17;102691.41;4937195;28;20077;-66
2023/04/03 01:39:26;;;;;;;2.38;2.13;;;;;;;10.11;41.87;102687.28;4953316;28;20031;-65
2023/04/03 01:41:52;;;;;;;2.55;1.48;;;;;;;10.04;42.18;102689.44;4937347;28;20486;-65
2023/04/03 01:44:19;;;;;;;2.53;2.03;;;;;;;9.98;42.47;102688.88;4937311;28;20100;-66
2023/04/03 01:46:44;;;;;;;8.57;2.47;;;;;;;9.93;42.39;102691.81;4936701;28;20466;-65
2023/04/03 01:49:10;;;;;;;3.35;1.70;;;;;;;9.89;41.95;102696.44;4953268;28;20093;-65
2023/04/03 01:51:35;;;;;;;5.18;2.35;;;;;;;9.82;41.79;102687.00;4952996;28;20092;-66
2023/04/03 01:54:00;;;;;;;6.38;2.30;;;;;;;9.80;41.90;102686.19;4952746;28;20042;-65
2023/04/03 01:56:26;;;;;;;5.65;2.53;;;;;;;9.75;42.85;102692.72;4937299;28;20035;-66
2023/04/03 01:58:51;;;;;;;2.78;2.25;;;;;;;9.70;42.14;102690.31;4952805;28;20054;-65
2023/04/03 02:01:17;;;;;;;2.80;2.53;;;;;;;9.67;42.55;102698.47;4952681;28;20043;-66
2023/04/03 02:03:42;;;;;;;2.75;1.88;;;;;;;9.63;41.96;102696.88;4936673;28;20502;-65
2023/04/03 02:06:08;;;;;;;5.18;2.28;;;;;;;9.57;42.86;102689.19;4953955;28;20106;-66
2023/04/03 02:08:33;;;;;;;5.85;2.53;;;;;;;9.58;42.52;102692.72;4969065;28;20114;-65
2023/04/03 02:10:59;;;;;;;6.68;3.17;;;;;;;9.54;42.18;102701.84;4936654;28;20035;-65
2023/04/03 02:13:24;;;;;;;3.30;1.92;;;;;;;9.51;42.60;102693.97;4936484;28;20445;-65
2023/04/03 02:15:50;;;;;;;2.35;1.77;;;;;;;9.48;42.27;102689.66;4951999;28;20510;-65
2023/04/03 02:18:15;;;;;;;3.38;2.58;;;;;;;9.45;42.20;102705.84;4953688;28;20035;-66
2023/04/03 02:20:41;;;;;;;3.38;2.03;;;;;;;9.41;42.73;102698.91;4952902;28;20476;-66
2023/04/03 02:23:06;;;;;;;3.47;2.25;;;;;;;9.39;42.86;102706.16;4952365;28;20039;-65
2023/04/03 02:25:33;;;;;;;3.10;2.05;;;;;;;9.37;42.85;102702.69;4968475;28;20040;-65
2023/04/03 02:27:58;;;;;;;4.07;2.30;;;;;;;9.32;42.34;102700.22;4952163;28;20031;-65
2023/04/03 02:30:24;;;;;;;4.97;2.40;;;;;;;9.32;42.35;102707.41;4952269;28;20042;-65
2023/04/03 02:32:49;;;;;;;4.75;2.28;;;;;;;9.28;42.65;102701.34;4952663;28;20043;-65
2023/04/03 02:35:15;;;;;;;3.25;2.40;;;;;;;9.26;42.54;102713.03;4953484;28;20047;-65
2023/04/03 02:37:40;;;;;;;4.60;2.30;;;;;;;9.22;42.42;102703.44;4920354;28;20453;-65
2023/04/03 02:40:07;;;;;;;2.63;2.10;;;;;;;9.22;42.74;102708.78;4936255;28;20043;-65
2023/04/03 02:42:33;;;;;;;4.22;2.13;;;;;;;9.20;43.11;102705.31;4936194;28;20027;-65
2023/04/03 02:45:00;;;;;;;3.40;2.53;;;;;;;9.18;41.83;102705.41;4936922;28;20039;-65
2023/04/03 02:47:26;;;;;;;5.57;2.63;;;;;;;9.15;42.95;102696.66;4936692;28;20063;-66
2023/04/03 02:49:52;;;;;;;3.97;2.58;;;;;;;9.14;42.80;102705.59;4953239;28;20123;-65
2023/04/03 02:52:18;;;;;;;5.60;2.95;;;;;;;9.13;42.49;102707.41;4951963;28;20520;-65
2023/04/03 02:54:43;;;;;;;4.10;2.83;;;;;;;9.10;42.49;102702.22;4951974;28;20035;-65
2023/04/03 02:57:09;;;;;;;4.13;3.20;;;;;;;9.10;42.31;102701.38;4951810;28;20035;-65
2023/04/03 02:59:36;;;;;;;6.15;2.80;;;;;;;9.11;43.01;102713.78;4952133;28;20050;-66
2023/04/03 03:02:01;;;;;;;3.63;2.50;;;;;;;9.08;43.27;102701.44;4947805;28;20085;-67
2023/04/03 03:04:27;;;;;;;4.30;2.83;;;;;;;9.12;42.82;102708.38;4901242;28;20039;-65
2023/04/03 03:06:52;;;;;;;5.22;3.38;;;;;;;9.18;43.03;102709.88;4948551;28;20114;-65
2023/04/03 03:09:18;;;;;;;5.15;3.20;;;;;;;9.21;43.13;102709.75;4933892;28;20040;-65
2023/04/03 03:11:43;;;;;;;5.40;2.97;;;;;;;9.24;43.10;102712.25;4917036;28;20403;-66
2023/04/03 03:14:09;;;;;;;4.13;2.70;;;;;;;9.24;43.19;102706.91;4932529;28;20044;-65
2023/04/03 03:16:34;;;;;;;2.95;2.30;;;;;;;9.19;42.97;102703.56;4932687;29;20040;-65
2023/04/03 03:19:00;;;;;;;5.45;2.40;;;;;;;9.19;42.00;102720.50;4932782;28;20046;-66
2023/04/03 03:21:25;;;;;;;5.72;3.00;;;;;;;9.18;42.27;102712.56;4933894;28;20040;-65
2023/04/03 03:23:51;;;;;;;2.95;2.63;;;;;;;9.15;43.13;102720.72;4934378;29;20032;-65
2023/04/03 03:26:16;;;;;;;4.43;3.17;;;;;;;9.09;43.05;102702.28;4933186;28;20123;-65
2023/04/03 03:28:42;;;;;;;4.43;3.42;;;;;;;9.17;43.22;102716.16;4948679;28;20047;-65
2023/04/03 03:31:10;;;;;;;5.47;3.78;;;;;;;9.19;43.05;102709.78;4932690;28;20484;-65
2023/04/03 03:33:36;;;;;;;8.38;3.40;;;;;;;9.23;42.79;102710.53;4932187;28;20162;-65
2023/04/03 03:36:01;;;;;;;4.22;3.15;;;;;;;9.28;42.55;102713.84;4932838;28;20118;-65
2023/04/03 03:38:28;;;;;;;6.07;3.25;;;;;;;9.32;43.31;102710.91;4917208;29;20032;-65
2023/04/03 03:40:53;;;;;;;7.60;3.95;;;;;;;9.34;42.74;102709.06;4900866;28;20123;-65
2023/04/03 03:43:20;;;;;;;6.82;3.75;;;;;;;9.37;42.69;102716.06;4931323;28;20501;-65
2023/04/03 03:45:50;;;;;;;4.32;3.03;;;;;;;9.37;42.62;102713.38;4933533;28;20051;-65
2023/04/03 03:48:15;;;;;;;7.43;2.75;;;;;;;9.36;43.17;102715.19;4932275;28;20441;-65
2023/04/03 03:50:41;;;;;;;4.70;3.30;;;;;;;9.36;42.76;102715.19;4932850;29;20039;-65
2023/04/03 03:53:06;;;;;;;5.30;3.63;;;;;;;9.38;42.83;102708.91;4932225;28;20050;-65
2023/04/03 03:55:31;;;;;;;5.50;3.40;;;;;;;9.38;43.63;102718.66;4948045;28;20039;-65
2023/04/03 03:57:57;;;;;;;4.20;2.63;;;;;;;9.36;43.18;102711.66;4932167;28;20066;-66
2023/04/03 04:00:22;;;;;;;3.70;3.03;;;;;;;9.37;43.66;102713.38;4948052;28;20042;-65
2023/04/03 04:02:48;;;;;;;5.55;3.33;;;;;;;9.37;43.14;102718.75;4932511;29;20035;-65
2023/04/03 04:05:13;;;;;;;3.90;2.72;;;;;;;9.36;43.34;102717.00;4947825;28;20039;-65
2023/04/03 04:07:38;;;;;;;5.28;3.33;;;;;;;9.34;42.72;102729.59;4947878;28;20039;-65
2023/04/03 04:10:04;;;;;;;3.63;3.08;;;;;;;9.30;43.06;102717.28;4931718;28;20415;-65
2023/04/03 04:12:30;;;;;;;6.65;3.53;;;;;;;9.26;43.50;102719.28;4947515;28;20123;-66
2023/04/03 04:14:55;;;;;;;6.93;3.75;;;;;;;9.27;43.63;102733.47;4932065;28;20613;-68
2023/04/03 04:17:21;;;;;;;3.70;2.72;;;;;;;9.24;42.59;102728.31;4931723;28;20039;-65
2023/04/03 04:19:46;;;;;;;8.93;3.30;;;;;;;9.23;43.25;102724.75;4931488;28;20062;-65
2023/04/03 04:22:12;;;;;;;5.38;4.05;;;;;;;9.23;43.20;102726.56;4947446;28;20038;-65
2023/04/03 04:24:37;;;;;;;9.52;4.68;;;;;;;9.26;43.60;102721.06;4915710;28;20032;-65
2023/04/03 04:27:03;;;;;;;8.45;4.00;;;;;;;9.29;43.09;102728.94;4931522;28;20110;-65
2023/04/03 04:29:28;;;;;;;6.88;3.80;;;;;;;9.32;43.49;102724.28;4931950;29;20030;-65
2023/04/03 04:31:53;;;;;;;7.47;4.13;;;;;;;9.36;43.32;102727.69;4931604;28;20166;-65
2023/04/03 04:34:19;;;;;;;9.07;4.07;;;;;;;9.33;43.14;102706.44;4932411;28;20496;-65
2023/04/03 04:36:45;;;;;;;9.30;3.72;;;;;;;9.44;43.32;102725.50;4947353;28;20035;-65
2023/04/03 04:39:10;;;;;;;4.95;3.85;;;;;;;9.48;43.82;102721.75;4950559;28;20027;-65
2023/04/03 04:41:35;;;;;;;7.68;4.10;;;;;;;9.51;43.64;102726.94;4936310;29;20558;-65
2023/04/03 04:44:01;;;;;;;11.75;4.50;;;;;;;9.55;43.26;102727.69;4918830;28;20032;-65
2023/04/03 04:46:26;;;;;;;8.77;4.78;;;;;;;9.56;43.61;102730.25;4934627;28;20070;-66
2023/04/03 04:48:52;;;;;;;5.57;4.18;;;;;;;9.57;43.39;102737.34;4934556;28;20031;-65
2023/04/03 04:51:17;;;;;;;11.98;4.60;;;;;;;9.62;43.67;102740.66;4950690;28;20035;-65
2023/04/03 04:53:43;;;;;;;8.88;4.45;;;;;;;9.66;44.07;102742.22;4934935;29;20028;-65
2023/04/03 04:56:09;;;;;;;5.65;3.92;;;;;;;9.66;43.12;102747.56;4935875;28;20115;-65
2023/04/03 04:58:35;;;;;;;11.32;4.45;;;;;;;9.68;43.27;102745.72;4934599;28;20089;-65
2023/04/03 05:01:05;;;;;;;6.32;3.53;;;;;;;9.70;43.29;102749.16;4918849;29;20029;-65
2023/04/03 05:03:31;;;;;;;8.98;4.28;;;;;;;9.70;43.40;102748.31;4934755;29;20031;-65
2023/04/03 05:05:56;;;;;;;8.20;4.45;;;;;;;9.68;43.23;102744.84;4934873;28;20038;-65
2023/04/03 05:08:21;;;;;;;7.00;4.20;;;;;;;9.71;43.40;102748.25;4950304;28;20538;-65
2023/04/03 05:10:47;;;;;;;7.32;4.22;;;;;;;9.73;43.16;102761.53;4934675;28;20043;-65
2023/04/03 05:13:13;;;;;;;7.80;4.45;;;;;;;9.71;43.17;102745.56;4934744;29;20040;-65
2023/04/03 05:15:39;;;;;;;10.35;4.38;;;;;;;9.73;43.31;102753.50;4934574;28;20391;-66
2023/04/03 05:18:04;;;;;;;5.45;3.58;;;;;;;9.74;43.35;102760.59;4934286;28;20039;-65
2023/04/03 05:20:31;;;;;;;5.00;3.30;;;;;;;9.73;43.37;102770.44;4935824;29;20143;-65
2023/04/03 05:22:56;;;;;;;10.32;3.88;;;;;;;9.74;43.46;102765.94;4902871;28;20036;-64
2023/04/03 05:25:21;;;;;;;8.95;3.60;;;;;;;9.74;43.01;102766.78;4918868;28;20042;-65
2023/04/03 05:27:47;;;;;;;7.30;3.42;;;;;;;9.78;43.25;102767.50;4918267;28;20522;-65
2023/04/03 05:30:12;;;;;;;4.15;3.40;;;;;;;9.81;43.56;102762.88;4918671;28;20032;-68
2023/04/03 05:32:38;;;;;;;6.15;3.10;;;;;;;9.85;43.60;102764.44;4934414;28;20054;-65
2023/04/03 05:35:05;;;;;;;5.05;3.30;;;;;;;9.91;43.20;102761.47;4918197;28;20138;-66
2023/04/03 05:37:31;;;;;;;5.38;2.97;;;;;;;10.00;43.51;102761.94;4918329;29;20038;-66
2023/04/03 05:39:56;;;;;;;9.43;3.05;;;;;;;10.08;43.19;102767.78;4918196;28;20118;-63
2023/04/03 05:42:22;;;;;;;5.32;2.78;;;;;;;10.15;43.17;102766.56;4933918;28;20517;-63
2023/04/03 05:44:49;;;;;;;6.55;2.42;;;;;;;10.20;43.19;102767.19;4934201;29;20035;-63
2023/04/03 05:47:15;;;;;;;7.57;2.83;;;;;;;10.31;42.82;102762.13;4949478;28;20542;-63
2023/04/03 05:49:41;;;;;;;4.05;2.15;;;;;;;10.41;42.96;102768.75;4934058;28;20044;-63
2023/04/03 05:52:28;;;;;;;4.28;2.47;;;;;;;10.53;43.11;102778.81;4933526;29;20023;-63
2023/04/03 05:54:54;;;;;;;9.23;2.47;;;;;;;10.64;42.68;102776.41;4949614;28;20036;-63
2023/04/03 05:57:20;;;;;;;7.80;2.42;;;;;;;10.77;42.79;102780.19;4933664;28;20377;-63
2023/04/03 05:59:46;;;;;;;3.50;2.45;;;;;;;10.90;42.71;102778.56;4934155;29;20503;-63
2023/04/03 06:02:20;;;;;;;8.60;2.20;;;;;;;11.07;42.11;102791.06;4933568;28;20040;-63
2023/04/03 06:04:46;;;;;;;4.75;1.95;;;;;;;11.22;42.42;102781.31;4917687;29;20106;-64
2023/04/03 06:07:17;;;;;;;5.53;2.33;;;;;;;11.40;41.79;102783.81;4933634;28;20573;-63
2023/04/03 06:09:43;;;;;;;5.28;2.33;;;;;;;11.58;41.85;102787.28;4933479;29;20035;-63
2023/04/03 06:12:09;;;;;;;3.38;2.28;;;;;;;11.72;42.28;102779.34;4933740;28;20028;-63
2023/04/03 06:14:35;;;;;;;6.63;1.90;;;;;;;11.87;41.66;102777.56;4933893;29;20032;-64
2023/04/03 06:17:01;;;;;;;8.10;2.22;;;;;;;12.03;41.70;102779.25;4933445;28;20028;-63
2023/04/03 06:19:27;;;;;;;4.25;1.70;;;;;;;12.17;41.56;102784.69;4934570;28;20513;-63
2023/04/03 06:21:53;;;;;;;4.35;1.60;;;;;;;12.29;42.17;102780.41;4934462;28;20046;-63
2023/04/03 06:24:19;;;;;;;7.35;1.98;;;;;;;12.43;41.67;102782.25;4933228;28;20024;-64
2023/04/03 06:26:45;;;;;;;3.30;1.90;;;;;;;12.55;41.46;102786.88;4933780;29;20030;-64
2023/04/03 06:29:10;;;;;;;4.35;1.98;;;;;;;12.68;42.03;102787.84;4934428;28;20419;-64
2023/04/03 06:31:36;;;;;;;3.45;1.90;;;;;;;12.74;41.87;102774.03;4934548;28;20043;-64
2023/04/03 06:34:03;;;;;;;3.72;2.28;;;;;;;12.91;41.96;102789.97;4933056;28;20119;-64
2023/04/03 06:36:28;;;;;;;1.95;1.30;;;;;;;13.02;40.89;102787.47;4933145;28;20039;-64
2023/04/03 06:38:54;;;;;;;4.65;1.90;;;;;;;13.18;40.91;102782.88;4934670;29;20032;-64
2023/04/03 06:41:19;;;;;;;4.50;1.92;;;;;;;13.30;41.23;102782.09;4932913;28;20043;-63
2023/04/03 06:43:45;;;;;;;1.73;1.48;;;;;;;13.43;41.48;102788.41;4933170;28;20028;-64
2023/04/03 06:46:18;;;;;;;2.95;1.20;;;;;;;13.60;40.68;102791.81;4917441;28;20044;-64
2023/04/03 06:48:44;;;;;;;4.40;1.80;;;;;;;13.72;40.71;102775.75;4932990;29;20499;-63
2023/04/03 06:51:24;;;;;;;5.50;1.73;;;;;;;13.89;41.07;102786.25;4934157;28;20055;-64
2023/04/03 06:53:51;;;;;;;2.53;1.58;;;;;;;14.00;41.51;102797.19;4934332;29;20169;-64
2023/04/03 06:56:17;;;;;;;5.75;1.50;;;;;;;14.10;40.30;102797.41;4932873;29;20115;-63
2023/04/03 06:58:43;;;;;;;3.05;1.73;;;;;;;14.20;39.95;102801.22;4932859;28;20051;-64
2023/04/03 07:01:10;;;;;;;5.00;1.80;;;;;;;14.33;41.25;102791.34;4932677;28;20403;-64
2023/04/03 07:03:36;;;;;;;1.73;1.23;;;;;;;14.50;40.79;102796.47;4932911;28;20032;-64
2023/04/03 07:06:03;;;;;;;3.63;1.70;;;;;;;14.65;40.44;102796.38;4932821;28;20119;-64
2023/04/03 07:08:28;;;;;;;3.05;1.35;;;;;;;14.79;39.87;102801.66;4932933;29;20034;-64
2023/04/03 07:10:54;;;;;;;3.30;1.48;;;;;;;14.91;39.77;102801.63;4934795;28;20043;-64
2023/04/03 07:13:19;;;;;;;3.15;1.30;;;;;;;15.05;39.01;102806.03;4951506;28;20578;-65
2023/04/03 07:15:45;;;;;;;3.60;1.85;;;;;;;15.15;39.52;102808.00;4935781;28;20027;-65
2023/04/03 07:18:10;;;;;;;6.05;1.80;;;;;;;15.24;40.12;102811.00;4952850;28;20442;-65
2023/04/03 07:20:36;;;;;;;6.38;1.55;;;;;;;15.33;39.98;102811.19;4952051;29;20066;-65
2023/04/03 07:23:01;;;;;;;9.80;2.45;;;;;;;15.42;39.89;102821.31;4935503;28;20385;-64
2023/04/03 07:25:27;;;;;;;2.95;1.90;;;;;;;15.48;39.74;102815.53;4952703;28;20115;-64
2023/04/03 07:27:54;;;;;;;4.82;1.77;;;;;;;15.58;39.91;102819.25;4951450;28;20027;-64
2023/04/03 07:30:19;;;;;;;2.28;1.23;;;;;;;15.65;38.35;102811.56;4951576;28;20035;-64
2023/04/03 07:32:45;;;;;;;7.35;2.05;;;;;;;15.74;39.59;102825.25;4951918;28;20038;-64
2023/04/03 07:35:11;;;;;;;3.25;1.58;;;;;;;15.85;39.05;102819.06;4935535;28;20058;-64
2023/04/03 07:37:36;;;;;;;3.50;1.60;;;;;;;15.96;39.01;102818.25;4951651;28;20035;-64
2023/04/03 07:40:03;;;;;;;7.07;2.10;;;;;;;16.07;39.19;102823.72;4952760;28;20054;-64
2023/04/03 07:42:28;;;;;;;4.10;1.42;;;;;;;16.19;38.66;102812.00;4951556;28;20039;-64
2023/04/03 07:44:54;;;;;;;6.72;1.55;;;;;;;16.37;39.17;102815.97;4936094;28;20088;-64
2023/04/03 07:47:20;;;;;;;3.10;1.52;;;;;;;16.52;38.83;102820.22;4950913;28;20082;-64
2023/04/03 07:49:46;;;;;;;1.95;1.00;;;;;;;16.67;37.13;102819.03;4967318;28;20048;-64
2023/04/03 07:52:14;;;;;;;2.65;1.50;;;;;;;16.78;37.84;102821.75;4951379;28;20481;-64
2023/04/03 07:54:39;;;;;;;3.05;1.42;;;;;;;16.95;38.55;102812.31;4951071;28;20084;-65
2023/04/03 07:57:05;;;;;;;2.63;1.45;;;;;;;17.07;36.97;102813.19;4933916;28;20035;-65
2023/04/03 07:59:31;;;;;;;2.63;1.48;;;;;;;17.25;36.42;102814.41;4935677;28;20059;-64
2023/04/03 08:01:56;;;;;;;4.03;1.88;;;;;;;17.45;36.78;102814.50;4950880;28;20039;-65
2023/04/03 08:04:22;;;;;;;4.45;1.75;;;;;;;17.56;37.51;102804.69;4950993;28;20510;-65
2023/04/03 08:06:47;;;;;;;5.20;1.80;;;;;;;17.73;36.84;102813.13;4952108;28;20036;-65
2023/04/03 08:09:15;;;;;;;5.20;1.52;;;;;;;17.88;36.51;102814.59;4950915;28;20038;-65
2023/04/03 08:11:40;;;;;;;3.97;1.55;;;;;;;18.03;37.20;102824.13;4951001;28;20031;-64
2023/04/03 08:14:06;;;;;;;1.92;1.25;;;;;;;18.18;36.83;102810.25;4950381;28;20047;-65
2023/04/03 08:16:31;;;;;;;2.92;1.40;;;;;;;18.38;36.39;102813.00;4935055;28;20035;-64
2023/04/03 08:18:57;;;;;;;2.50;1.20;;;;;;;18.55;36.49;102812.47;4934779;28;20426;-65
2023/04/03 08:21:22;;;;;;;7.32;1.88;;;;;;;18.80;35.71;102808.47;4966783;28;20055;-66
2023/04/03 08:23:50;;;;;;;5.07;2.17;;;;;;;19.02;35.98;102819.16;4951228;28;20106;-66
2023/04/03 08:26:17;;;;;;;3.40;1.27;;;;;;;19.18;36.45;102815.94;4950641;28;20048;-65
2023/04/03 08:28:43;;;;;;;1.40;1.27;;;;;;;19.34;35.86;102808.16;4951022;28;20111;-65
2023/04/03 08:31:12;;;;;;;5.45;1.13;;;;;;;19.47;35.01;102818.81;4934840;28;20055;-65
2023/04/03 08:33:38;;;;;;;5.25;1.42;;;;;;;19.61;34.77;102826.59;4951884;28;20085;-65
2023/04/03 08:36:06;;;;;;;2.88;1.17;;;;;;;19.72;35.56;102813.72;4950678;28;20084;-65
2023/04/03 08:38:32;;;;;;;6.10;1.30;;;;;;;19.83;35.15;102815.47;4935326;29;20462;-65
2023/04/03 08:41:03;;;;;;;4.80;1.30;;;;;;;19.92;34.60;102816.47;4934717;28;20043;-65
2023/04/03 08:43:58;;;;;;;5.23;1.20;;;;;;;20.05;34.74;102826.09;4951794;28;20073;-65
2023/04/03 08:46:38;;;;;;;2.45;0.93;;;;;;;20.16;34.45;102817.78;4967342;28;20131;-65
2023/04/03 08:49:10;;;;;;;2.88;1.05;;;;;;;20.30;33.68;102821.97;4951618;28;20055;-65
2023/04/03 08:51:36;;;;;;;2.43;0.93;;;;;;;20.46;34.17;102818.69;4950503;28;20027;-65
2023/04/03 08:54:08;;;;;;;5.63;1.45;;;;;;;20.65;33.60;102813.19;4950243;28;20039;-66
2023/04/03 08:56:35;;;;;;;1.88;0.90;;;;;;;20.82;33.88;102816.03;4950827;29;20102;-66
2023/04/03 08:59:05;;;;;;;5.57;1.23;;;;;;;20.99;33.28;102817.13;4950344;28;20036;-65
2023/04/03 09:01:36;;;;;;;3.70;1.10;;;;;;;21.15;32.79;102816.53;4950323;28;20046;-66
2023/04/03 09:04:02;;;;;;;1.85;0.80;;;;;;;21.29;32.77;102818.75;4934289;29;20031;-66
2023/04/03 09:06:32;;;;;;;1.95;0.68;;;;;;;21.46;33.41;102813.38;4951479;28;20122;-66
2023/04/03 09:09:00;;;;;;;1.90;0.70;;;;;;;21.61;32.14;102815.59;4950654;29;20394;-66
2023/04/03 09:11:50;;;;;;;5.13;1.10;;;;;;;21.72;32.62;102816.22;4951533;28;20045;-65
2023/04/03 09:14:26;;;;;;;1.30;0.90;;;;;;;21.74;32.19;102808.75;4949957;28;20036;-65
2023/04/03 09:17:24;;;;;;;2.75;0.88;;;;;;;21.78;31.45;102814.75;4950077;28;20051;-65
2023/04/03 09:19:51;;;;;;;2.58;0.75;;;;;;;21.88;31.37;102812.84;4949753;28;20085;-66
2023/04/03 09:22:16;;;;;;;2.30;0.50;;;;;;;21.99;32.05;102813.50;4951236;28;20113;-66
2023/04/03 09:24:44;;;;;;;1.17;0.55;;;;;;;22.05;31.38;102806.56;4952176;28;20070;-65
2023/04/03 09:27:11;;;;;;;2.47;0.95;;;;;;;22.08;30.63;102817.16;4953390;28;20034;-66
2023/04/03 09:29:45;;;;;;;1.27;0.50;;;;;;;22.08;30.77;102817.16;4953563;29;20035;-65
2023/04/03 09:32:31;;;;;;;2.55;0.60;;;;;;;22.10;30.82;102804.22;4953312;28;20074;-66
2023/04/03 09:35:00;;;;;;;1.40;0.63;;;;;;;22.12;29.97;102804.91;4953187;28;20185;-65
2023/04/03 09:37:39;;;;;;;1.55;0.50;;;;;;;22.20;30.21;102804.13;4953233;28;20129;-66
2023/04/03 09:40:06;;;;;;;1.13;0.30;;;;;;;22.34;30.21;102806.28;4953248;28;20506;-66
2023/04/03 09:42:32;;;;;;;0.77;0.40;;;;;;;22.66;29.97;102794.81;4937395;29;20114;-66
2023/04/03 09:45:03;;;;;;;2.38;0.85;;;;;;;23.24;28.66;102803.16;4937911;28;20094;-66
2023/04/03 09:47:30;;;;;;;2.80;1.20;;;;;;;24.09;28.46;102790.13;4954295;28;20185;-67
2023/04/03 09:50:29;;;;;;;1.42;0.50;;;;;;;26.38;25.91;102785.41;4952861;28;20031;-67
2023/04/03 09:52:54;;;;;;;2.55;0.68;;;;;;;28.71;24.22;102788.81;4980137;28;20039;-66
2023/04/03 09:55:27;;;;;;;1.75;0.63;;;;;;;28.13;23.57;102781.72;4954101;28;20050;-66
2023/04/03 09:58:15;;;;;;;;;;;;;;;27.21;26.05;102776.97;4936813;28;20084;-67
2023/04/03 10:00:40;;;;;;;1.85;0.50;;;;;;;26.58;25.60;102797.56;4953734;28;19921;-66
2023/04/03 10:03:31;;;;;;;1.02;0.68;;;;;;;26.23;25.71;102790.84;4936391;28;20027;-67
2023/04/03 10:05:57;;;;;;;0.60;0.50;;;;;;;26.17;26.00;102793.47;4953054;28;20023;-67
2023/04/03 10:08:29;;;;;;;0.60;0.45;;;;;;;26.23;24.80;102793.59;4952691;28;20114;-67
2023/04/03 10:11:10;;;;;;;2.78;0.70;;;;;;;26.43;25.22;102788.44;4936803;28;20039;-67
2023/04/03 10:13:36;;;;;;;4.05;0.70;;;;;;;26.59;25.06;102785.53;4952609;28;20032;-66
2023/04/03 10:16:09;;;;;;;1.60;0.50;;;;;;;26.76;24.65;102783.47;4953767;28;20047;-66
2023/04/03 10:18:56;;;;;;;1.63;0.70;;;;;;;26.98;24.43;102777.06;4952360;28;20503;-67
2023/04/03 10:21:42;;;;;;;2.20;0.57;;;;;;;27.30;24.34;102775.84;4953467;28;20514;-67
2023/04/03 10:24:18;;;;;;;1.65;0.88;;;;;;;27.63;24.07;102774.38;4953561;28;20506;-66
2023/04/03 10:26:59;;;;;;;1.02;0.40;;;;;;;27.91;23.51;102780.84;4953863;28;20038;-67
2023/04/03 10:29:42;;;;;;;1.83;0.60;;;;;;;28.02;23.75;102769.28;4952180;28;20040;-67
2023/04/03 10:32:31;;;;;;;1.60;0.60;;;;;;;28.11;22.63;102765.38;4936348;28;20035;-67
2023/04/03 10:35:21;;;;;;;1.08;0.50;;;;;;;28.19;22.48;102767.16;4951789;28;20031;-67
2023/04/03 10:38:00;;;;;;;4.57;0.60;;;;;;;28.24;23.00;102762.75;4953383;28;20059;-66
2023/04/03 10:40:46;;;;;;;1.65;0.60;;;;;;;28.23;23.07;102762.94;4953409;28;20035;-67
2023/04/03 10:43:24;;;;;;;0.73;0.63;;;;;;;28.24;22.20;102748.97;4936079;28;20038;-67
2023/04/03 10:45:52;;;;;;;3.58;0.52;;;;;;;28.32;22.50;102761.75;4951830;28;20078;-68
2023/04/03 10:48:26;;;;;;;0.98;0.60;;;;;;;28.28;22.67;102753.00;4951979;28;20038;-66
2023/04/03 10:51:06;;;;;;;1.02;0.60;;;;;;;28.21;22.49;102752.13;4953520;28;20406;-68
2023/04/03 10:53:57;;;;;;;1.67;0.63;;;;;;;28.15;22.24;102743.78;4951898;29;20188;-66
2023/04/03 10:56:32;;;;;;;3.63;0.80;;;;;;;28.08;21.80;102745.63;4951752;28;20035;-68
2023/04/03 10:59:01;;;;;;;1.98;0.57;;;;;;;28.06;21.53;102734.78;4953011;28;20134;-66
2023/04/03 11:01:31;;;;;;;2.50;0.60;;;;;;;28.19;22.61;102729.41;4952916;28;20059;-67
2023/04/03 11:03:59;;;;;;;1.65;0.70;;;;;;;28.27;22.20;102737.53;4935702;29;20031;-67
2023/04/03 11:06:28;;;;;;;1.52;0.65;;;;;;;28.17;21.67;102731.50;4951743;28;20042;-67
2023/04/03 11:08:58;;;;;;;2.20;0.55;;;;;;;28.07;21.55;102733.75;4952128;28;20027;-66
2023/04/03 11:11:32;;;;;;;3.88;0.70;;;;;;;28.01;21.00;102737.25;4951705;28;20031;-67
2023/04/03 11:14:13;;;;;;;2.55;0.60;;;;;;;28.01;21.28;102736.41;4951563;28;20036;-67
2023/04/03 11:16:43;;;;;;;3.20;0.70;;;;;;;27.99;21.69;102717.31;4935965;29;20122;-66
2023/04/03 11:19:21;;;;;;;1.95;0.70;;;;;;;28.13;21.62;102729.34;4935624;29;20375;-67
2023/04/03 11:22:16;;;;;;;1.55;0.68;;;;;;;28.29;21.00;102727.16;4951683;28;20126;-67
2023/04/03 11:24:43;;;;;;;3.35;0.90;;;;;;;28.38;21.04;102732.53;4959720;28;20101;-67
2023/04/03 11:27:35;;;;;;;2.13;0.73;;;;;;;28.25;20.96;102725.00;4951621;28;20427;-68
2023/04/03 11:30:02;;;;;;;0.77;0.70;;;;;;;28.15;21.19;102719.81;4934742;28;20127;-67
2023/04/03 11:32:43;;;;;;;1.55;0.60;;;;;;;28.16;21.27;102720.69;4951803;28;20023;-67
2023/04/03 11:35:08;;;;;;;2.38;0.60;;;;;;;28.17;21.70;102720.47;4952565;28;20043;-67